sensor_id;sensor_type;location;lat;lon;timestamp;temperature;humidity
18103;DHT22;9178;51.120;6.192;2023-06-05T00:01:00;15.00;99.90
18103;DHT22;9178;51.120;6.192;2023-06-05T00:03:28;14.90;99.90
18103;DHT22;9178;51.120;6.192;2023-06-05T00:06:10;14.90;99.90
18103;DHT22;9178;51.120;6.192;2023-06-05T00:08:38;14.80;99.90
18103;DHT22;9178;51.120;6.192;2023-06-05T00:11:09;14.80;99.90
18103;DHT22;9178;51.120;6.192;2023-06-05T00:13:40;14.80;99.90
18103;DHT22;9178;51.120;6.192;2023-06-05T00:16:14;14.80;99.90
18103;DHT22;9178;51.120;6.192;2023-06-05T00:18:41;14.80;99.90
18103;DHT22;9178;51.120;6.192;2023-06-05T00:21:12;14.70;99.90
18103;DHT22;9178;51.120;6.192;2023-06-05T00:23:43;14.70;99.90
18103;DHT22;9178;51.120;6.192;2023-06-05T00:26:12;14.60;99.90
18103;DHT22;9178;51.120;6.192;2023-06-05T00:28:39;14.60;99.90
18103;DHT22;9178;51.120;6.192;2023-06-05T00:31:09;14.50;99.90
18103;DHT22;9178;51.120;6.192;2023-06-05T00:33:39;14.50;99.90
18103;DHT22;9178;51.120;6.192;2023-06-05T00:36:07;14.50;99.90
18103;DHT22;9178;51.120;6.192;2023-06-05T00:38:35;14.50;99.90
18103;DHT22;9178;51.120;6.192;2023-06-05T00:41:02;14.40;99.90
18103;DHT22;9178;51.120;6.192;2023-06-05T00:43:31;14.40;99.90
18103;DHT22;9178;51.120;6.192;2023-06-05T00:46:04;14.30;99.90
18103;DHT22;9178;51.120;6.192;2023-06-05T00:48:32;14.30;99.90
18103;DHT22;9178;51.120;6.192;2023-06-05T00:51:03;14.30;99.90
18103;DHT22;9178;51.120;6.192;2023-06-05T00:53:35;14.20;99.90
18103;DHT22;9178;51.120;6.192;2023-06-05T00:56:05;14.20;99.90
18103;DHT22;9178;51.120;6.192;2023-06-05T00:58:32;14.10;99.90
18103;DHT22;9178;51.120;6.192;2023-06-05T01:06:47;14.10;99.90
18103;DHT22;9178;51.120;6.192;2023-06-05T01:07:37;14.00;99.90
18103;DHT22;9178;51.120;6.192;2023-06-05T01:10:08;14.00;99.90
18103;DHT22;9178;51.120;6.192;2023-06-05T01:12:43;14.00;99.90
18103;DHT22;9178;51.120;6.192;2023-06-05T01:15:14;13.90;99.90
18103;DHT22;9178;51.120;6.192;2023-06-05T01:17:44;13.90;99.90
18103;DHT22;9178;51.120;6.192;2023-06-05T01:20:13;13.90;99.90
18103;DHT22;9178;51.120;6.192;2023-06-05T01:22:41;13.80;99.90
18103;DHT22;9178;51.120;6.192;2023-06-05T01:25:19;13.80;99.90
18103;DHT22;9178;51.120;6.192;2023-06-05T01:27:54;13.70;99.90
18103;DHT22;9178;51.120;6.192;2023-06-05T01:30:37;13.70;99.90
18103;DHT22;9178;51.120;6.192;2023-06-05T01:33:08;13.70;99.90
18103;DHT22;9178;51.120;6.192;2023-06-05T01:35:46;13.60;99.90
18103;DHT22;9178;51.120;6.192;2023-06-05T01:38:17;13.60;99.90
18103;DHT22;9178;51.120;6.192;2023-06-05T01:40:47;13.60;99.90
18103;DHT22;9178;51.120;6.192;2023-06-05T01:43:18;13.50;99.90
18103;DHT22;9178;51.120;6.192;2023-06-05T01:45:46;13.50;99.90
18103;DHT22;9178;51.120;6.192;2023-06-05T01:48:16;13.50;99.90
18103;DHT22;9178;51.120;6.192;2023-06-05T01:50:43;13.50;99.90
18103;DHT22;9178;51.120;6.192;2023-06-05T01:53:11;13.40;99.90
18103;DHT22;9178;51.120;6.192;2023-06-05T01:55:38;13.40;99.90
18103;DHT22;9178;51.120;6.192;2023-06-05T01:58:10;13.40;99.90
18103;DHT22;9178;51.120;6.192;2023-06-05T02:00:37;13.30;99.90
18103;DHT22;9178;51.120;6.192;2023-06-05T02:03:07;13.30;99.90
18103;DHT22;9178;51.120;6.192;2023-06-05T02:05:38;13.30;99.90
18103;DHT22;9178;51.120;6.192;2023-06-05T02:10:56;13.20;99.90
18103;DHT22;9178;51.120;6.192;2023-06-05T02:13:30;13.10;99.90
18103;DHT22;9178;51.120;6.192;2023-06-05T02:15:59;13.10;99.90
18103;DHT22;9178;51.120;6.192;2023-06-05T02:18:26;13.10;99.90
18103;DHT22;9178;51.120;6.192;2023-06-05T02:20:55;13.00;99.90
18103;DHT22;9178;51.120;6.192;2023-06-05T02:23:23;13.00;99.90
18103;DHT22;9178;51.120;6.192;2023-06-05T02:25:50;12.90;99.90
18103;DHT22;9178;51.120;6.192;2023-06-05T02:28:17;12.90;99.90
18103;DHT22;9178;51.120;6.192;2023-06-05T02:30:47;12.80;99.90
18103;DHT22;9178;51.120;6.192;2023-06-05T02:33:14;12.80;99.90
18103;DHT22;9178;51.120;6.192;2023-06-05T02:35:41;12.80;99.90
18103;DHT22;9178;51.120;6.192;2023-06-05T02:38:08;12.70;99.90
18103;DHT22;9178;51.120;6.192;2023-06-05T02:40:38;12.70;99.90
18103;DHT22;9178;51.120;6.192;2023-06-05T02:43:05;12.60;99.90
18103;DHT22;9178;51.120;6.192;2023-06-05T02:45:33;12.60;99.90
18103;DHT22;9178;51.120;6.192;2023-06-05T02:48:02;12.60;99.90
18103;DHT22;9178;51.120;6.192;2023-06-05T02:50:29;12.60;99.90
18103;DHT22;9178;51.120;6.192;2023-06-05T02:52:59;12.50;99.90
18103;DHT22;9178;51.120;6.192;2023-06-05T02:55:27;12.50;99.90
18103;DHT22;9178;51.120;6.192;2023-06-05T02:57:58;12.50;99.90
18103;DHT22;9178;51.120;6.192;2023-06-05T03:00:25;12.40;99.90
18103;DHT22;9178;51.120;6.192;2023-06-05T03:02:52;12.40;99.90
18103;DHT22;9178;51.120;6.192;2023-06-05T03:05:22;12.30;99.90
18103;DHT22;9178;51.120;6.192;2023-06-05T03:10:33;12.30;99.90
18103;DHT22;9178;51.120;6.192;2023-06-05T03:13:01;12.20;99.90
18103;DHT22;9178;51.120;6.192;2023-06-05T03:15:28;12.20;99.90
18103;DHT22;9178;51.120;6.192;2023-06-05T03:17:55;12.20;99.90
18103;DHT22;9178;51.120;6.192;2023-06-05T03:20:34;12.10;99.90
18103;DHT22;9178;51.120;6.192;2023-06-05T03:23:10;12.10;99.90
18103;DHT22;9178;51.120;6.192;2023-06-05T03:25:39;12.10;99.90
18103;DHT22;9178;51.120;6.192;2023-06-05T03:28:11;12.10;99.90
18103;DHT22;9178;51.120;6.192;2023-06-05T03:30:38;12.00;99.90
18103;DHT22;9178;51.120;6.192;2023-06-05T03:33:05;12.00;99.90
18103;DHT22;9178;51.120;6.192;2023-06-05T03:35:34;12.00;99.90
18103;DHT22;9178;51.120;6.192;2023-06-05T03:38:13;11.90;99.90
18103;DHT22;9178;51.120;6.192;2023-06-05T03:40:40;11.90;99.90
18103;DHT22;9178;51.120;6.192;2023-06-05T03:43:07;11.90;99.90
18103;DHT22;9178;51.120;6.192;2023-06-05T03:45:36;11.90;99.90
18103;DHT22;9178;51.120;6.192;2023-06-05T03:48:05;11.90;99.90
18103;DHT22;9178;51.120;6.192;2023-06-05T03:50:33;11.90;99.90
18103;DHT22;9178;51.120;6.192;2023-06-05T03:53:10;11.80;99.90
18103;DHT22;9178;51.120;6.192;2023-06-05T03:55:41;11.90;99.90
18103;DHT22;9178;51.120;6.192;2023-06-05T03:58:11;11.80;99.90
18103;DHT22;9178;51.120;6.192;2023-06-05T04:00:40;11.80;99.90
18103;DHT22;9178;51.120;6.192;2023-06-05T04:03:11;11.80;99.90
18103;DHT22;9178;51.120;6.192;2023-06-05T04:05:48;11.80;99.90
18103;DHT22;9178;51.120;6.192;2023-06-05T04:08:30;11.80;99.90
18103;DHT22;9178;51.120;6.192;2023-06-05T04:11:01;11.90;99.90
18103;DHT22;9178;51.120;6.192;2023-06-05T04:13:32;11.90;99.90
18103;DHT22;9178;51.120;6.192;2023-06-05T04:16:03;11.90;99.90
18103;DHT22;9178;51.120;6.192;2023-06-05T04:18:31;11.90;99.90
18103;DHT22;9178;51.120;6.192;2023-06-05T04:21:06;11.90;99.90
18103;DHT22;9178;51.120;6.192;2023-06-05T04:23:41;11.90;99.90
18103;DHT22;9178;51.120;6.192;2023-06-05T04:26:09;12.00;99.90
18103;DHT22;9178;51.120;6.192;2023-06-05T04:28:46;12.00;99.90
18103;DHT22;9178;51.120;6.192;2023-06-05T04:31:18;12.00;99.90
18103;DHT22;9178;51.120;6.192;2023-06-05T04:33:51;12.00;99.90
18103;DHT22;9178;51.120;6.192;2023-06-05T04:36:20;12.10;99.90
18103;DHT22;9178;51.120;6.192;2023-06-05T04:38:47;12.10;99.90
18103;DHT22;9178;51.120;6.192;2023-06-05T04:41:13;12.10;99.90
18103;DHT22;9178;51.120;6.192;2023-06-05T04:43:41;12.20;99.90
18103;DHT22;9178;51.120;6.192;2023-06-05T04:46:09;12.20;99.90
18103;DHT22;9178;51.120;6.192;2023-06-05T04:48:36;12.20;99.90
18103;DHT22;9178;51.120;6.192;2023-06-05T04:51:03;12.30;99.90
18103;DHT22;9178;51.120;6.192;2023-06-05T04:53:32;12.30;99.90
18103;DHT22;9178;51.120;6.192;2023-06-05T04:55:59;12.30;99.90
18103;DHT22;9178;51.120;6.192;2023-06-05T04:58:27;12.40;99.90
18103;DHT22;9178;51.120;6.192;2023-06-05T05:00:54;12.40;99.90
18103;DHT22;9178;51.120;6.192;2023-06-05T05:03:36;12.40;99.90
18103;DHT22;9178;51.120;6.192;2023-06-05T05:06:03;12.50;99.90
18103;DHT22;9178;51.120;6.192;2023-06-05T05:08:32;12.50;99.90
18103;DHT22;9178;51.120;6.192;2023-06-05T05:11:01;12.60;99.90
18103;DHT22;9178;51.120;6.192;2023-06-05T05:13:29;12.60;99.90
18103;DHT22;9178;51.120;6.192;2023-06-05T05:15:59;12.70;99.90
18103;DHT22;9178;51.120;6.192;2023-06-05T05:18:26;12.80;99.90
18103;DHT22;9178;51.120;6.192;2023-06-05T05:20:54;12.70;99.90
18103;DHT22;9178;51.120;6.192;2023-06-05T05:23:23;12.80;99.90
18103;DHT22;9178;51.120;6.192;2023-06-05T05:25:54;12.90;99.90
18103;DHT22;9178;51.120;6.192;2023-06-05T05:28:22;12.90;99.90
18103;DHT22;9178;51.120;6.192;2023-06-05T05:30:51;12.90;99.90
18103;DHT22;9178;51.120;6.192;2023-06-05T05:33:18;13.00;99.90
18103;DHT22;9178;51.120;6.192;2023-06-05T05:35:49;13.10;99.90
18103;DHT22;9178;51.120;6.192;2023-06-05T05:38:17;13.10;99.90
18103;DHT22;9178;51.120;6.192;2023-06-05T05:40:44;13.10;99.90
18103;DHT22;9178;51.120;6.192;2023-06-05T05:43:12;13.20;99.90
18103;DHT22;9178;51.120;6.192;2023-06-05T05:45:39;13.20;99.90
18103;DHT22;9178;51.120;6.192;2023-06-05T05:48:09;13.30;99.90
18103;DHT22;9178;51.120;6.192;2023-06-05T05:50:40;13.40;99.90
18103;DHT22;9178;51.120;6.192;2023-06-05T05:53:13;13.40;99.90
18103;DHT22;9178;51.120;6.192;2023-06-05T05:55:40;13.50;99.90
18103;DHT22;9178;51.120;6.192;2023-06-05T05:58:11;13.50;99.90
18103;DHT22;9178;51.120;6.192;2023-06-05T06:00:39;13.50;99.90
18103;DHT22;9178;51.120;6.192;2023-06-05T06:03:10;13.60;99.90
18103;DHT22;9178;51.120;6.192;2023-06-05T06:05:38;13.60;99.90
18103;DHT22;9178;51.120;6.192;2023-06-05T06:08:11;13.70;99.90
18103;DHT22;9178;51.120;6.192;2023-06-05T06:10:40;13.80;99.90
18103;DHT22;9178;51.120;6.192;2023-06-05T06:13:08;13.80;99.90
18103;DHT22;9178;51.120;6.192;2023-06-05T06:15:37;13.90;99.90
18103;DHT22;9178;51.120;6.192;2023-06-05T06:18:05;13.90;99.90
18103;DHT22;9178;51.120;6.192;2023-06-05T06:20:32;14.00;99.90
18103;DHT22;9178;51.120;6.192;2023-06-05T06:23:12;14.10;99.90
18103;DHT22;9178;51.120;6.192;2023-06-05T06:25:42;14.10;99.90
18103;DHT22;9178;51.120;6.192;2023-06-05T06:28:09;14.20;99.90
18103;DHT22;9178;51.120;6.192;2023-06-05T06:30:37;14.30;99.90
18103;DHT22;9178;51.120;6.192;2023-06-05T06:33:04;14.30;99.90
18103;DHT22;9178;51.120;6.192;2023-06-05T06:35:32;14.40;99.90
18103;DHT22;9178;51.120;6.192;2023-06-05T06:38:00;14.50;99.90
18103;DHT22;9178;51.120;6.192;2023-06-05T06:40:27;14.50;99.90
18103;DHT22;9178;51.120;6.192;2023-06-05T06:42:55;14.60;99.90
18103;DHT22;9178;51.120;6.192;2023-06-05T06:45:22;14.60;99.90
18103;DHT22;9178;51.120;6.192;2023-06-05T06:47:50;14.70;99.90
18103;DHT22;9178;51.120;6.192;2023-06-05T06:50:17;14.80;99.90
18103;DHT22;9178;51.120;6.192;2023-06-05T06:52:44;14.80;99.90
18103;DHT22;9178;51.120;6.192;2023-06-05T06:55:11;14.90;99.90
18103;DHT22;9178;51.120;6.192;2023-06-05T06:57:39;15.00;99.90
18103;DHT22;9178;51.120;6.192;2023-06-05T07:00:07;15.10;99.90
18103;DHT22;9178;51.120;6.192;2023-06-05T07:02:36;15.20;99.90
18103;DHT22;9178;51.120;6.192;2023-06-05T07:05:05;15.30;99.90
18103;DHT22;9178;51.120;6.192;2023-06-05T07:07:32;15.50;99.90
18103;DHT22;9178;51.120;6.192;2023-06-05T07:09:59;15.70;99.90
18103;DHT22;9178;51.120;6.192;2023-06-05T07:12:26;16.00;99.90
18103;DHT22;9178;51.120;6.192;2023-06-05T07:14:54;16.30;99.90
18103;DHT22;9178;51.120;6.192;2023-06-05T07:17:21;16.50;99.90
18103;DHT22;9178;51.120;6.192;2023-06-05T07:19:48;16.80;99.90
18103;DHT22;9178;51.120;6.192;2023-06-05T07:22:16;17.00;99.90
18103;DHT22;9178;51.120;6.192;2023-06-05T07:24:43;17.30;99.90
18103;DHT22;9178;51.120;6.192;2023-06-05T07:27:11;17.60;99.90
18103;DHT22;9178;51.120;6.192;2023-06-05T07:29:38;17.90;99.90
18103;DHT22;9178;51.120;6.192;2023-06-05T07:32:10;18.10;99.90
18103;DHT22;9178;51.120;6.192;2023-06-05T07:34:37;18.40;99.90
18103;DHT22;9178;51.120;6.192;2023-06-05T07:37:05;18.70;99.90
18103;DHT22;9178;51.120;6.192;2023-06-05T07:39:34;19.00;99.90
18103;DHT22;9178;51.120;6.192;2023-06-05T07:42:05;19.30;99.90
18103;DHT22;9178;51.120;6.192;2023-06-05T07:44:40;19.60;99.90
18103;DHT22;9178;51.120;6.192;2023-06-05T07:47:09;19.80;99.90
18103;DHT22;9178;51.120;6.192;2023-06-05T07:49:36;20.00;99.90
18103;DHT22;9178;51.120;6.192;2023-06-05T07:52:04;20.30;99.90
18103;DHT22;9178;51.120;6.192;2023-06-05T07:54:33;20.60;99.90
18103;DHT22;9178;51.120;6.192;2023-06-05T07:57:01;20.90;99.90
18103;DHT22;9178;51.120;6.192;2023-06-05T07:59:30;21.00;99.90
18103;DHT22;9178;51.120;6.192;2023-06-05T08:01:58;21.20;99.90
18103;DHT22;9178;51.120;6.192;2023-06-05T08:04:26;21.50;99.90
18103;DHT22;9178;51.120;6.192;2023-06-05T08:06:57;21.70;99.90
18103;DHT22;9178;51.120;6.192;2023-06-05T08:09:24;21.90;99.90
18103;DHT22;9178;51.120;6.192;2023-06-05T08:11:52;22.10;99.90
18103;DHT22;9178;51.120;6.192;2023-06-05T08:14:20;22.30;99.90
18103;DHT22;9178;51.120;6.192;2023-06-05T08:16:47;22.50;99.90
18103;DHT22;9178;51.120;6.192;2023-06-05T08:19:14;22.80;99.90
18103;DHT22;9178;51.120;6.192;2023-06-05T08:21:41;22.70;99.80
18103;DHT22;9178;51.120;6.192;2023-06-05T08:24:08;22.80;99.40
18103;DHT22;9178;51.120;6.192;2023-06-05T08:26:36;23.00;98.40
18103;DHT22;9178;51.120;6.192;2023-06-05T08:29:05;23.20;97.10
18103;DHT22;9178;51.120;6.192;2023-06-05T08:31:35;23.20;97.10
18103;DHT22;9178;51.120;6.192;2023-06-05T08:34:02;23.30;96.00
18103;DHT22;9178;51.120;6.192;2023-06-05T08:36:29;23.60;96.30
18103;DHT22;9178;51.120;6.192;2023-06-05T08:39:00;23.90;95.50
18103;DHT22;9178;51.120;6.192;2023-06-05T08:41:29;24.10;94.60
18103;DHT22;9178;51.120;6.192;2023-06-05T08:43:57;24.30;93.30
18103;DHT22;9178;51.120;6.192;2023-06-05T08:46:28;24.50;93.70
18103;DHT22;9178;51.120;6.192;2023-06-05T08:49:00;24.70;92.10
18103;DHT22;9178;51.120;6.192;2023-06-05T08:51:32;24.80;91.60
18103;DHT22;9178;51.120;6.192;2023-06-05T08:54:03;24.90;91.70
18103;DHT22;9178;51.120;6.192;2023-06-05T08:56:30;25.20;89.50
18103;DHT22;9178;51.120;6.192;2023-06-05T08:58:59;25.40;88.80
18103;DHT22;9178;51.120;6.192;2023-06-05T09:01:29;25.40;89.40
18103;DHT22;9178;51.120;6.192;2023-06-05T09:03:57;25.50;87.10
18103;DHT22;9178;51.120;6.192;2023-06-05T09:06:25;25.70;83.10
18103;DHT22;9178;51.120;6.192;2023-06-05T09:08:53;25.80;85.80
18103;DHT22;9178;51.120;6.192;2023-06-05T09:11:25;25.90;81.40
18103;DHT22;9178;51.120;6.192;2023-06-05T09:13:54;26.00;81.80
18103;DHT22;9178;51.120;6.192;2023-06-05T09:16:22;26.30;82.40
18103;DHT22;9178;51.120;6.192;2023-06-05T09:18:58;26.50;80.70
18103;DHT22;9178;51.120;6.192;2023-06-05T09:21:27;26.60;78.30
18103;DHT22;9178;51.120;6.192;2023-06-05T09:24:14;26.70;78.40
18103;DHT22;9178;51.120;6.192;2023-06-05T09:26:56;27.10;76.70
18103;DHT22;9178;51.120;6.192;2023-06-05T09:29:25;27.30;76.70
18103;DHT22;9178;51.120;6.192;2023-06-05T09:31:54;27.40;75.20
18103;DHT22;9178;51.120;6.192;2023-06-05T09:34:25;27.50;73.90
18103;DHT22;9178;51.120;6.192;2023-06-05T09:36:53;27.70;74.80
18103;DHT22;9178;51.120;6.192;2023-06-05T09:39:21;27.90;73.60
18103;DHT22;9178;51.120;6.192;2023-06-05T09:41:52;28.20;72.70
18103;DHT22;9178;51.120;6.192;2023-06-05T09:44:20;28.40;70.90
18103;DHT22;9178;51.120;6.192;2023-06-05T09:46:55;28.40;68.50
18103;DHT22;9178;51.120;6.192;2023-06-05T09:49:28;28.20;68.10
18103;DHT22;9178;51.120;6.192;2023-06-05T09:52:00;28.40;66.90
18103;DHT22;9178;51.120;6.192;2023-06-05T09:54:30;28.50;69.20
18103;DHT22;9178;51.120;6.192;2023-06-05T09:57:01;28.90;69.40
18103;DHT22;9178;51.120;6.192;2023-06-05T09:59:30;29.40;65.60
18103;DHT22;9178;51.120;6.192;2023-06-05T10:02:09;29.40;66.20
18103;DHT22;9178;51.120;6.192;2023-06-05T10:04:57;29.70;63.80
18103;DHT22;9178;51.120;6.192;2023-06-05T10:07:30;29.90;63.80
18103;DHT22;9178;51.120;6.192;2023-06-05T10:09:58;30.20;61.60
18103;DHT22;9178;51.120;6.192;2023-06-05T10:12:26;30.40;61.60
18103;DHT22;9178;51.120;6.192;2023-06-05T10:14:54;30.40;59.50
18103;DHT22;9178;51.120;6.192;2023-06-05T10:17:22;30.50;60.30
18103;DHT22;9178;51.120;6.192;2023-06-05T10:19:53;30.80;59.30
18103;DHT22;9178;51.120;6.192;2023-06-05T10:22:22;31.00;58.80
18103;DHT22;9178;51.120;6.192;2023-06-05T10:24:54;31.00;57.50
18103;DHT22;9178;51.120;6.192;2023-06-05T10:27:40;30.70;58.50
18103;DHT22;9178;51.120;6.192;2023-06-05T10:30:28;30.90;57.90
18103;DHT22;9178;51.120;6.192;2023-06-05T10:33:05;31.40;57.60
18103;DHT22;9178;51.120;6.192;2023-06-05T10:35:45;31.80;56.00
18103;DHT22;9178;51.120;6.192;2023-06-05T10:38:17;32.00;57.20
18103;DHT22;9178;51.120;6.192;2023-06-05T10:40:48;32.20;55.10
18103;DHT22;9178;51.120;6.192;2023-06-05T10:43:27;32.20;52.70
18103;DHT22;9178;51.120;6.192;2023-06-05T10:45:55;32.40;52.60
18103;DHT22;9178;51.120;6.192;2023-06-05T10:51:35;32.50;52.40
18103;DHT22;9178;51.120;6.192;2023-06-05T10:54:04;32.60;51.80
18103;DHT22;9178;51.120;6.192;2023-06-05T10:56:58;32.60;52.70
18103;DHT22;9178;51.120;6.192;2023-06-05T10:59:29;33.20;51.10
18103;DHT22;9178;51.120;6.192;2023-06-05T11:02:24;33.30;51.00
18103;DHT22;9178;51.120;6.192;2023-06-05T11:05:08;33.70;51.70
18103;DHT22;9178;51.120;6.192;2023-06-05T11:07:45;33.90;50.50
18103;DHT22;9178;51.120;6.192;2023-06-05T11:10:17;34.10;50.00
18103;DHT22;9178;51.120;6.192;2023-06-05T11:12:59;34.30;48.00
18103;DHT22;9178;51.120;6.192;2023-06-05T11:15:41;34.30;48.20
18103;DHT22;9178;51.120;6.192;2023-06-05T11:18:35;34.20;47.50
18103;DHT22;9178;51.120;6.192;2023-06-05T11:21:06;34.10;47.90
18103;DHT22;9178;51.120;6.192;2023-06-05T11:23:35;34.10;46.60
18103;DHT22;9178;51.120;6.192;2023-06-05T11:26:38;34.20;48.50
18103;DHT22;9178;51.120;6.192;2023-06-05T11:29:11;34.40;45.10
18103;DHT22;9178;51.120;6.192;2023-06-05T11:31:44;34.40;45.70
18103;DHT22;9178;51.120;6.192;2023-06-05T11:34:12;34.10;41.70
18103;DHT22;9178;51.120;6.192;2023-06-05T11:36:42;33.70;46.20
18103;DHT22;9178;51.120;6.192;2023-06-05T11:39:10;34.00;45.70
18103;DHT22;9178;51.120;6.192;2023-06-05T11:41:44;34.20;45.80
18103;DHT22;9178;51.120;6.192;2023-06-05T11:44:12;34.50;43.90
18103;DHT22;9178;51.120;6.192;2023-06-05T11:46:40;34.70;45.00
18103;DHT22;9178;51.120;6.192;2023-06-05T11:49:09;34.90;43.10
18103;DHT22;9178;51.120;6.192;2023-06-05T11:51:36;34.90;42.80
18103;DHT22;9178;51.120;6.192;2023-06-05T11:54:04;35.00;43.30
18103;DHT22;9178;51.120;6.192;2023-06-05T11:56:34;35.20;42.00
18103;DHT22;9178;51.120;6.192;2023-06-05T11:59:11;35.20;42.20
18103;DHT22;9178;51.120;6.192;2023-06-05T12:01:44;35.00;41.40
18103;DHT22;9178;51.120;6.192;2023-06-05T12:04:11;34.80;42.50
18103;DHT22;9178;51.120;6.192;2023-06-05T12:06:44;34.60;43.20
18103;DHT22;9178;51.120;6.192;2023-06-05T12:09:13;34.70;43.60
18103;DHT22;9178;51.120;6.192;2023-06-05T12:11:44;34.90;40.00
18103;DHT22;9178;51.120;6.192;2023-06-05T12:14:11;35.30;42.50
18103;DHT22;9178;51.120;6.192;2023-06-05T12:16:40;35.40;41.40
18103;DHT22;9178;51.120;6.192;2023-06-05T12:19:13;35.20;42.70
18103;DHT22;9178;51.120;6.192;2023-06-05T12:21:43;35.40;41.90
18103;DHT22;9178;51.120;6.192;2023-06-05T12:24:11;35.50;41.20
18103;DHT22;9178;51.120;6.192;2023-06-05T12:26:53;35.60;39.10
18103;DHT22;9178;51.120;6.192;2023-06-05T12:29:24;35.40;42.30
18103;DHT22;9178;51.120;6.192;2023-06-05T12:32:01;35.40;41.20
18103;DHT22;9178;51.120;6.192;2023-06-05T12:34:41;35.60;41.30
18103;DHT22;9178;51.120;6.192;2023-06-05T12:37:11;35.80;40.70
18103;DHT22;9178;51.120;6.192;2023-06-05T12:39:48;35.80;40.40
18103;DHT22;9178;51.120;6.192;2023-06-05T12:42:17;35.80;41.70
18103;DHT22;9178;51.120;6.192;2023-06-05T12:44:44;35.80;42.00
18103;DHT22;9178;51.120;6.192;2023-06-05T12:47:11;36.10;40.50
18103;DHT22;9178;51.120;6.192;2023-06-05T12:49:38;36.10;40.20
18103;DHT22;9178;51.120;6.192;2023-06-05T12:52:06;35.70;38.60
18103;DHT22;9178;51.120;6.192;2023-06-05T12:54:36;35.20;40.40
18103;DHT22;9178;51.120;6.192;2023-06-05T12:57:04;35.20;42.00
18103;DHT22;9178;51.120;6.192;2023-06-05T12:59:34;35.60;40.50
18103;DHT22;9178;51.120;6.192;2023-06-05T13:02:01;35.50;42.10
18103;DHT22;9178;51.120;6.192;2023-06-05T13:04:30;35.70;40.90
18103;DHT22;9178;51.120;6.192;2023-06-05T13:06:58;35.70;41.50
18103;DHT22;9178;51.120;6.192;2023-06-05T13:09:26;35.90;41.20
18103;DHT22;9178;51.120;6.192;2023-06-05T13:11:53;36.00;41.10
18103;DHT22;9178;51.120;6.192;2023-06-05T13:14:22;36.00;41.10
18103;DHT22;9178;51.120;6.192;2023-06-05T13:16:51;36.20;40.40
18103;DHT22;9178;51.120;6.192;2023-06-05T13:19:20;35.60;40.30
18103;DHT22;9178;51.120;6.192;2023-06-05T13:21:47;35.40;40.30
18103;DHT22;9178;51.120;6.192;2023-06-05T13:24:15;35.20;39.60
18103;DHT22;9178;51.120;6.192;2023-06-05T13:26:42;35.10;39.80
18103;DHT22;9178;51.120;6.192;2023-06-05T13:29:09;34.80;42.00
18103;DHT22;9178;51.120;6.192;2023-06-05T13:31:36;35.10;41.50
18103;DHT22;9178;51.120;6.192;2023-06-05T13:34:05;35.50;40.40
18103;DHT22;9178;51.120;6.192;2023-06-05T13:36:32;35.50;41.30
18103;DHT22;9178;51.120;6.192;2023-06-05T13:38:59;35.90;39.70
18103;DHT22;9178;51.120;6.192;2023-06-05T13:41:28;35.80;38.10
18103;DHT22;9178;51.120;6.192;2023-06-05T13:43:55;35.20;40.70
18103;DHT22;9178;51.120;6.192;2023-06-05T13:46:23;34.90;39.10
18103;DHT22;9178;51.120;6.192;2023-06-05T13:48:51;34.90;41.00
18103;DHT22;9178;51.120;6.192;2023-06-05T13:51:19;35.20;40.70
18103;DHT22;9178;51.120;6.192;2023-06-05T13:53:48;35.10;41.70
18103;DHT22;9178;51.120;6.192;2023-06-05T13:56:16;35.30;40.50
18103;DHT22;9178;51.120;6.192;2023-06-05T13:58:43;35.10;39.70
18103;DHT22;9178;51.120;6.192;2023-06-05T14:01:10;35.10;40.00
18103;DHT22;9178;51.120;6.192;2023-06-05T14:03:39;35.10;40.10
18103;DHT22;9178;51.120;6.192;2023-06-05T14:06:06;34.90;40.90
18103;DHT22;9178;51.120;6.192;2023-06-05T14:08:35;35.10;41.60
18103;DHT22;9178;51.120;6.192;2023-06-05T14:11:15;35.30;40.90
18103;DHT22;9178;51.120;6.192;2023-06-05T14:13:43;35.20;39.30
18103;DHT22;9178;51.120;6.192;2023-06-05T14:16:10;34.90;40.20
18103;DHT22;9178;51.120;6.192;2023-06-05T14:18:37;34.70;40.90
18103;DHT22;9178;51.120;6.192;2023-06-05T14:21:04;34.90;40.10
18103;DHT22;9178;51.120;6.192;2023-06-05T14:23:31;34.80;39.20
18103;DHT22;9178;51.120;6.192;2023-06-05T14:26:00;34.30;39.70
18103;DHT22;9178;51.120;6.192;2023-06-05T14:28:27;34.30;40.10
18103;DHT22;9178;51.120;6.192;2023-06-05T14:30:57;34.30;40.30
18103;DHT22;9178;51.120;6.192;2023-06-05T14:33:24;34.30;41.70
18103;DHT22;9178;51.120;6.192;2023-06-05T14:35:52;34.10;40.70
18103;DHT22;9178;51.120;6.192;2023-06-05T14:38:20;34.40;40.20
18103;DHT22;9178;51.120;6.192;2023-06-05T14:40:49;34.40;39.90
18103;DHT22;9178;51.120;6.192;2023-06-05T14:43:22;34.20;41.10
18103;DHT22;9178;51.120;6.192;2023-06-05T14:45:49;34.20;40.90
18103;DHT22;9178;51.120;6.192;2023-06-05T14:48:17;33.80;39.70
18103;DHT22;9178;51.120;6.192;2023-06-05T14:50:44;33.80;41.40
18103;DHT22;9178;51.120;6.192;2023-06-05T14:53:12;34.00;42.00
18103;DHT22;9178;51.120;6.192;2023-06-05T14:55:39;34.10;41.20
18103;DHT22;9178;51.120;6.192;2023-06-05T14:58:08;34.00;40.70
18103;DHT22;9178;51.120;6.192;2023-06-05T15:00:38;34.00;41.50
18103;DHT22;9178;51.120;6.192;2023-06-05T15:03:05;33.90;40.30
18103;DHT22;9178;51.120;6.192;2023-06-05T15:05:32;33.70;42.50
18103;DHT22;9178;51.120;6.192;2023-06-05T15:07:59;33.70;41.60
18103;DHT22;9178;51.120;6.192;2023-06-05T15:10:26;33.30;41.30
18103;DHT22;9178;51.120;6.192;2023-06-05T15:12:54;32.80;41.60
18103;DHT22;9178;51.120;6.192;2023-06-05T15:15:40;32.60;42.20
18103;DHT22;9178;51.120;6.192;2023-06-05T15:18:07;32.80;43.30
18103;DHT22;9178;51.120;6.192;2023-06-05T15:20:34;32.50;41.40
18103;DHT22;9178;51.120;6.192;2023-06-05T15:23:01;32.50;42.60
18103;DHT22;9178;51.120;6.192;2023-06-05T15:25:29;32.80;43.40
18103;DHT22;9178;51.120;6.192;2023-06-05T15:27:58;32.90;42.90
18103;DHT22;9178;51.120;6.192;2023-06-05T15:30:25;33.10;43.20
18103;DHT22;9178;51.120;6.192;2023-06-05T15:32:54;33.20;41.80
18103;DHT22;9178;51.120;6.192;2023-06-05T15:35:21;32.90;42.60
18103;DHT22;9178;51.120;6.192;2023-06-05T15:37:54;32.90;42.80
18103;DHT22;9178;51.120;6.192;2023-06-05T15:40:21;32.70;42.10
18103;DHT22;9178;51.120;6.192;2023-06-05T15:43:03;32.50;43.20
18103;DHT22;9178;51.120;6.192;2023-06-05T15:45:31;32.50;44.50
18103;DHT22;9178;51.120;6.192;2023-06-05T15:48:01;32.30;42.90
18103;DHT22;9178;51.120;6.192;2023-06-05T15:50:28;32.10;42.90
18103;DHT22;9178;51.120;6.192;2023-06-05T15:52:55;31.80;42.20
18103;DHT22;9178;51.120;6.192;2023-06-05T15:55:23;31.90;43.70
18103;DHT22;9178;51.120;6.192;2023-06-05T15:57:53;31.80;44.40
18103;DHT22;9178;51.120;6.192;2023-06-05T16:00:53;31.50;42.90
18103;DHT22;9178;51.120;6.192;2023-06-05T16:03:29;31.40;44.70
18103;DHT22;9178;51.120;6.192;2023-06-05T16:05:56;31.40;44.40
18103;DHT22;9178;51.120;6.192;2023-06-05T16:08:23;31.40;43.20
18103;DHT22;9178;51.120;6.192;2023-06-05T16:10:50;31.20;43.90
18103;DHT22;9178;51.120;6.192;2023-06-05T16:13:17;31.10;44.40
18103;DHT22;9178;51.120;6.192;2023-06-05T16:15:49;31.10;44.20